Lakeside City, Texas
Current Conditions -  °F | °C
As of 4:15 AM on Saturday 22 Nov 2014 (Local Time) from KCWC Reporting Station
Thunderstorm Thunderstorm  
Wind Chill: 62°   Ceiling: 2400
Heat Index: 62°   Visibility: 10mi
Dew Point: 61°   Wind: 14mph
Humidity: 97%   Direction: 160°SSE
Pressure: 29.98"   Gusts: NA
Location:  33.838°N, 98.5232°W
Report Text: KCWC 221015Z AUTO 16012KT 10SM VCTS SCT011 BKN024 OVC029 17/16 A2998 RMK AO2 LTG DSNT ALQS T01670162
Loading
Personal Weather Stations






























Interactive Weather Map New forecast layout! Learn more

10-Day Weather Forecast

Advertisements
Track Severe Weather on mobile